sensor_id;sensor_type;location;lat;lon;timestamp;P1;durP1;ratioP1;P2;durP2;ratioP2
68680;SDS011;55836;49.858;6.756;2022-08-06T00:00:22;3.23;;;1.43;;
68680;SDS011;55836;49.858;6.756;2022-08-06T00:02:47;1.80;;;1.10;;
68680;SDS011;55836;49.858;6.756;2022-08-06T00:05:13;2.73;;;1.13;;
68680;SDS011;55836;49.858;6.756;2022-08-06T00:07:39;1.40;;;1.20;;
68680;SDS011;55836;49.858;6.756;2022-08-06T00:10:04;2.83;;;1.53;;
68680;SDS011;55836;49.858;6.756;2022-08-06T00:12:31;4.13;;;1.10;;
68680;SDS011;55836;49.858;6.756;2022-08-06T00:14:58;2.87;;;1.20;;
68680;SDS011;55836;49.858;6.756;2022-08-06T00:17:24;1.93;;;1.07;;
68680;SDS011;55836;49.858;6.756;2022-08-06T00:19:50;5.27;;;1.43;;
68680;SDS011;55836;49.858;6.756;2022-08-06T00:22:16;4.53;;;1.57;;
68680;SDS011;55836;49.858;6.756;2022-08-06T00:24:41;1.90;;;1.10;;
68680;SDS011;55836;49.858;6.756;2022-08-06T00:27:07;4.77;;;1.43;;
68680;SDS011;55836;49.858;6.756;2022-08-06T00:29:33;2.33;;;1.57;;
68680;SDS011;55836;49.858;6.756;2022-08-06T00:31:59;1.27;;;1.17;;
68680;SDS011;55836;49.858;6.756;2022-08-06T00:34:24;2.87;;;1.30;;
68680;SDS011;55836;49.858;6.756;2022-08-06T00:36:50;2.03;;;1.10;;
68680;SDS011;55836;49.858;6.756;2022-08-06T00:39:16;4.00;;;1.40;;
68680;SDS011;55836;49.858;6.756;2022-08-06T00:41:41;2.83;;;1.90;;
68680;SDS011;55836;49.858;6.756;2022-08-06T00:44:07;3.00;;;1.50;;
68680;SDS011;55836;49.858;6.756;2022-08-06T00:46:36;2.83;;;1.47;;
68680;SDS011;55836;49.858;6.756;2022-08-06T00:49:02;3.37;;;2.03;;
68680;SDS011;55836;49.858;6.756;2022-08-06T00:51:28;2.50;;;1.70;;
68680;SDS011;55836;49.858;6.756;2022-08-06T00:53:53;4.03;;;1.50;;
68680;SDS011;55836;49.858;6.756;2022-08-06T00:56:19;2.83;;;1.50;;
68680;SDS011;55836;49.858;6.756;2022-08-06T00:58:45;2.43;;;1.40;;
68680;SDS011;55836;49.858;6.756;2022-08-06T01:01:11;2.20;;;1.60;;
68680;SDS011;55836;49.858;6.756;2022-08-06T01:03:37;2.93;;;1.60;;
68680;SDS011;55836;49.858;6.756;2022-08-06T01:06:03;2.33;;;1.70;;
68680;SDS011;55836;49.858;6.756;2022-08-06T01:08:29;3.90;;;1.80;;
68680;SDS011;55836;49.858;6.756;2022-08-06T01:10:54;2.80;;;1.50;;
68680;SDS011;55836;49.858;6.756;2022-08-06T01:13:20;4.77;;;1.77;;
68680;SDS011;55836;49.858;6.756;2022-08-06T01:15:49;3.10;;;1.70;;
68680;SDS011;55836;49.858;6.756;2022-08-06T01:18:43;4.53;;;1.40;;
68680;SDS011;55836;49.858;6.756;2022-08-06T01:24:30;3.27;;;1.60;;
68680;SDS011;55836;49.858;6.756;2022-08-06T01:29:46;2.17;;;1.70;;
68680;SDS011;55836;49.858;6.756;2022-08-06T01:32:27;5.13;;;1.80;;
68680;SDS011;55836;49.858;6.756;2022-08-06T01:35:07;1.93;;;1.50;;
68680;SDS011;55836;49.858;6.756;2022-08-06T01:37:55;3.03;;;1.33;;
68680;SDS011;55836;49.858;6.756;2022-08-06T01:40:35;3.37;;;1.80;;
68680;SDS011;55836;49.858;6.756;2022-08-06T01:43:03;2.70;;;2.00;;
68680;SDS011;55836;49.858;6.756;2022-08-06T01:45:32;2.70;;;2.13;;
68680;SDS011;55836;49.858;6.756;2022-08-06T01:48:03;2.03;;;1.80;;
68680;SDS011;55836;49.858;6.756;2022-08-06T01:50:35;4.00;;;1.70;;
68680;SDS011;55836;49.858;6.756;2022-08-06T01:53:04;3.03;;;1.97;;
68680;SDS011;55836;49.858;6.756;2022-08-06T01:55:33;2.73;;;1.60;;
68680;SDS011;55836;49.858;6.756;2022-08-06T01:58:03;2.13;;;1.60;;
68680;SDS011;55836;49.858;6.756;2022-08-06T02:00:30;4.90;;;1.53;;
68680;SDS011;55836;49.858;6.756;2022-08-06T02:02:59;4.27;;;1.77;;
68680;SDS011;55836;49.858;6.756;2022-08-06T02:05:30;4.63;;;1.90;;
68680;SDS011;55836;49.858;6.756;2022-08-06T02:07:58;3.57;;;1.90;;
68680;SDS011;55836;49.858;6.756;2022-08-06T02:10:26;2.70;;;2.07;;
68680;SDS011;55836;49.858;6.756;2022-08-06T02:12:55;5.10;;;2.40;;
68680;SDS011;55836;49.858;6.756;2022-08-06T02:15:26;4.53;;;2.20;;
68680;SDS011;55836;49.858;6.756;2022-08-06T02:17:53;2.53;;;1.70;;
68680;SDS011;55836;49.858;6.756;2022-08-06T02:20:25;2.47;;;1.80;;
68680;SDS011;55836;49.858;6.756;2022-08-06T02:22:53;4.50;;;1.90;;
68680;SDS011;55836;49.858;6.756;2022-08-06T02:25:21;4.17;;;2.13;;
68680;SDS011;55836;49.858;6.756;2022-08-06T02:27:49;2.80;;;1.97;;
68680;SDS011;55836;49.858;6.756;2022-08-06T02:30:17;3.40;;;1.90;;
68680;SDS011;55836;49.858;6.756;2022-08-06T02:32:43;2.07;;;1.60;;
68680;SDS011;55836;49.858;6.756;2022-08-06T02:35:10;3.03;;;1.53;;
68680;SDS011;55836;49.858;6.756;2022-08-06T02:37:38;4.10;;;1.77;;
68680;SDS011;55836;49.858;6.756;2022-08-06T02:40:23;2.93;;;1.80;;
68680;SDS011;55836;49.858;6.756;2022-08-06T02:43:05;2.57;;;1.67;;
68680;SDS011;55836;49.858;6.756;2022-08-06T02:48:15;3.63;;;2.03;;
68680;SDS011;55836;49.858;6.756;2022-08-06T02:50:50;3.47;;;2.07;;
68680;SDS011;55836;49.858;6.756;2022-08-06T02:53:23;4.70;;;2.23;;
68680;SDS011;55836;49.858;6.756;2022-08-06T02:55:56;5.23;;;1.97;;
68680;SDS011;55836;49.858;6.756;2022-08-06T02:58:28;6.13;;;2.23;;
68680;SDS011;55836;49.858;6.756;2022-08-06T03:00:59;2.47;;;2.07;;
68680;SDS011;55836;49.858;6.756;2022-08-06T03:03:28;4.07;;;1.80;;
68680;SDS011;55836;49.858;6.756;2022-08-06T03:05:55;5.17;;;1.60;;
68680;SDS011;55836;49.858;6.756;2022-08-06T03:08:23;3.50;;;1.60;;
68680;SDS011;55836;49.858;6.756;2022-08-06T03:10:53;4.53;;;2.20;;
68680;SDS011;55836;49.858;6.756;2022-08-06T03:13:20;3.23;;;1.97;;
68680;SDS011;55836;49.858;6.756;2022-08-06T03:15:47;2.23;;;1.73;;
68680;SDS011;55836;49.858;6.756;2022-08-06T03:18:14;3.53;;;1.83;;
68680;SDS011;55836;49.858;6.756;2022-08-06T03:20:42;4.53;;;2.07;;
68680;SDS011;55836;49.858;6.756;2022-08-06T03:23:08;3.83;;;1.83;;
68680;SDS011;55836;49.858;6.756;2022-08-06T03:25:35;4.00;;;1.80;;
68680;SDS011;55836;49.858;6.756;2022-08-06T03:28:03;5.87;;;2.10;;
68680;SDS011;55836;49.858;6.756;2022-08-06T03:30:29;3.57;;;1.70;;
68680;SDS011;55836;49.858;6.756;2022-08-06T03:32:56;3.20;;;2.30;;
68680;SDS011;55836;49.858;6.756;2022-08-06T03:35:23;2.87;;;1.67;;
68680;SDS011;55836;49.858;6.756;2022-08-06T03:37:50;2.87;;;1.70;;
68680;SDS011;55836;49.858;6.756;2022-08-06T03:40:17;3.17;;;1.80;;
68680;SDS011;55836;49.858;6.756;2022-08-06T03:42:44;4.23;;;2.10;;
68680;SDS011;55836;49.858;6.756;2022-08-06T03:45:10;5.53;;;2.00;;
68680;SDS011;55836;49.858;6.756;2022-08-06T03:47:37;5.33;;;2.30;;
68680;SDS011;55836;49.858;6.756;2022-08-06T03:50:14;5.93;;;2.03;;
68680;SDS011;55836;49.858;6.756;2022-08-06T03:52:43;3.23;;;1.73;;
68680;SDS011;55836;49.858;6.756;2022-08-06T03:55:22;3.70;;;1.97;;
68680;SDS011;55836;49.858;6.756;2022-08-06T03:57:51;2.67;;;2.03;;
68680;SDS011;55836;49.858;6.756;2022-08-06T04:00:22;4.93;;;2.40;;
68680;SDS011;55836;49.858;6.756;2022-08-06T04:02:51;2.33;;;2.00;;
68680;SDS011;55836;49.858;6.756;2022-08-06T04:05:28;5.07;;;2.20;;
68680;SDS011;55836;49.858;6.756;2022-08-06T04:07:59;5.10;;;2.30;;
68680;SDS011;55836;49.858;6.756;2022-08-06T04:10:28;5.60;;;2.60;;
68680;SDS011;55836;49.858;6.756;2022-08-06T04:13:03;3.40;;;2.53;;
68680;SDS011;55836;49.858;6.756;2022-08-06T04:15:30;3.87;;;2.10;;
68680;SDS011;55836;49.858;6.756;2022-08-06T04:17:56;3.40;;;2.43;;
68680;SDS011;55836;49.858;6.756;2022-08-06T04:20:22;6.70;;;2.17;;
68680;SDS011;55836;49.858;6.756;2022-08-06T04:22:51;4.47;;;2.53;;
68680;SDS011;55836;49.858;6.756;2022-08-06T04:25:17;7.00;;;2.40;;
68680;SDS011;55836;49.858;6.756;2022-08-06T04:27:43;2.57;;;2.20;;
68680;SDS011;55836;49.858;6.756;2022-08-06T04:30:11;4.37;;;2.37;;
68680;SDS011;55836;49.858;6.756;2022-08-06T04:32:38;6.20;;;2.60;;
68680;SDS011;55836;49.858;6.756;2022-08-06T04:35:06;3.27;;;2.50;;
68680;SDS011;55836;49.858;6.756;2022-08-06T04:37:34;5.70;;;2.17;;
68680;SDS011;55836;49.858;6.756;2022-08-06T04:40:00;2.87;;;2.33;;
68680;SDS011;55836;49.858;6.756;2022-08-06T04:42:27;2.63;;;2.40;;
68680;SDS011;55836;49.858;6.756;2022-08-06T04:44:53;2.97;;;2.10;;
68680;SDS011;55836;49.858;6.756;2022-08-06T04:47:18;2.33;;;2.13;;
68680;SDS011;55836;49.858;6.756;2022-08-06T04:49:45;7.80;;;2.83;;
68680;SDS011;55836;49.858;6.756;2022-08-06T04:52:20;4.37;;;2.77;;
68680;SDS011;55836;49.858;6.756;2022-08-06T04:54:50;6.30;;;2.27;;
68680;SDS011;55836;49.858;6.756;2022-08-06T04:57:16;2.97;;;2.40;;
68680;SDS011;55836;49.858;6.756;2022-08-06T04:59:42;4.30;;;2.23;;
68680;SDS011;55836;49.858;6.756;2022-08-06T05:02:07;3.67;;;2.13;;
68680;SDS011;55836;49.858;6.756;2022-08-06T05:04:33;4.40;;;2.47;;
68680;SDS011;55836;49.858;6.756;2022-08-06T05:09:26;3.23;;;2.00;;
68680;SDS011;55836;49.858;6.756;2022-08-06T05:12:03;3.80;;;1.90;;
68680;SDS011;55836;49.858;6.756;2022-08-06T05:14:45;6.50;;;2.50;;
68680;SDS011;55836;49.858;6.756;2022-08-06T05:17:13;2.60;;;2.17;;
68680;SDS011;55836;49.858;6.756;2022-08-06T05:19:43;3.50;;;2.07;;
68680;SDS011;55836;49.858;6.756;2022-08-06T05:22:17;4.40;;;2.50;;
68680;SDS011;55836;49.858;6.756;2022-08-06T05:24:44;6.53;;;2.57;;
68680;SDS011;55836;49.858;6.756;2022-08-06T05:27:12;6.03;;;2.33;;
68680;SDS011;55836;49.858;6.756;2022-08-06T05:29:41;3.20;;;1.67;;
68680;SDS011;55836;49.858;6.756;2022-08-06T05:32:07;5.10;;;2.30;;
68680;SDS011;55836;49.858;6.756;2022-08-06T05:34:33;2.10;;;1.67;;
68680;SDS011;55836;49.858;6.756;2022-08-06T05:36:59;3.60;;;1.93;;
68680;SDS011;55836;49.858;6.756;2022-08-06T05:39:25;5.30;;;1.80;;
68680;SDS011;55836;49.858;6.756;2022-08-06T05:41:50;2.93;;;1.70;;
68680;SDS011;55836;49.858;6.756;2022-08-06T05:44:16;3.23;;;1.70;;
68680;SDS011;55836;49.858;6.756;2022-08-06T05:51:52;2.60;;;1.90;;
68680;SDS011;55836;49.858;6.756;2022-08-06T05:56:53;4.20;;;1.97;;
68680;SDS011;55836;49.858;6.756;2022-08-06T05:59:28;7.03;;;2.00;;
68680;SDS011;55836;49.858;6.756;2022-08-06T06:01:56;5.03;;;1.97;;
68680;SDS011;55836;49.858;6.756;2022-08-06T06:04:23;6.10;;;1.97;;
68680;SDS011;55836;49.858;6.756;2022-08-06T06:06:50;3.07;;;1.83;;
68680;SDS011;55836;49.858;6.756;2022-08-06T06:09:16;6.17;;;1.83;;
68680;SDS011;55836;49.858;6.756;2022-08-06T06:11:42;3.40;;;1.80;;
68680;SDS011;55836;49.858;6.756;2022-08-06T06:22:30;6.03;;;1.87;;
68680;SDS011;55836;49.858;6.756;2022-08-06T06:25:15;4.13;;;1.97;;
68680;SDS011;55836;49.858;6.756;2022-08-06T06:31:10;2.73;;;1.50;;
68680;SDS011;55836;49.858;6.756;2022-08-06T06:33:51;3.40;;;1.80;;
68680;SDS011;55836;49.858;6.756;2022-08-06T06:36:34;4.43;;;1.60;;
68680;SDS011;55836;49.858;6.756;2022-08-06T06:44:36;3.03;;;1.63;;
68680;SDS011;55836;49.858;6.756;2022-08-06T06:47:12;2.97;;;2.03;;
68680;SDS011;55836;49.858;6.756;2022-08-06T06:49:49;2.73;;;1.50;;
68680;SDS011;55836;49.858;6.756;2022-08-06T06:52:21;3.80;;;1.73;;
68680;SDS011;55836;49.858;6.756;2022-08-06T06:55:06;3.87;;;1.93;;
68680;SDS011;55836;49.858;6.756;2022-08-06T06:57:37;2.37;;;1.50;;
68680;SDS011;55836;49.858;6.756;2022-08-06T07:00:09;5.00;;;1.53;;
68680;SDS011;55836;49.858;6.756;2022-08-06T07:02:37;3.87;;;1.47;;
68680;SDS011;55836;49.858;6.756;2022-08-06T07:05:05;4.23;;;1.70;;
68680;SDS011;55836;49.858;6.756;2022-08-06T07:07:33;4.87;;;1.83;;
68680;SDS011;55836;49.858;6.756;2022-08-06T07:10:00;4.40;;;1.80;;
68680;SDS011;55836;49.858;6.756;2022-08-06T07:12:28;5.53;;;1.80;;
68680;SDS011;55836;49.858;6.756;2022-08-06T07:14:55;7.00;;;1.90;;
68680;SDS011;55836;49.858;6.756;2022-08-06T07:17:23;3.17;;;1.97;;
68680;SDS011;55836;49.858;6.756;2022-08-06T07:19:50;1.60;;;1.50;;
68680;SDS011;55836;49.858;6.756;2022-08-06T07:22:17;3.73;;;1.90;;
68680;SDS011;55836;49.858;6.756;2022-08-06T07:24:45;2.93;;;1.63;;
68680;SDS011;55836;49.858;6.756;2022-08-06T07:27:12;4.37;;;1.73;;
68680;SDS011;55836;49.858;6.756;2022-08-06T07:29:39;5.13;;;1.87;;
68680;SDS011;55836;49.858;6.756;2022-08-06T07:32:07;3.30;;;2.10;;
68680;SDS011;55836;49.858;6.756;2022-08-06T07:34:33;3.73;;;2.30;;
68680;SDS011;55836;49.858;6.756;2022-08-06T07:36:59;3.00;;;1.83;;
68680;SDS011;55836;49.858;6.756;2022-08-06T07:39:27;4.47;;;2.20;;
68680;SDS011;55836;49.858;6.756;2022-08-06T07:41:55;7.47;;;2.17;;
68680;SDS011;55836;49.858;6.756;2022-08-06T07:44:22;4.13;;;2.27;;
68680;SDS011;55836;49.858;6.756;2022-08-06T07:46:49;6.80;;;2.27;;
68680;SDS011;55836;49.858;6.756;2022-08-06T07:49:20;5.63;;;2.20;;
68680;SDS011;55836;49.858;6.756;2022-08-06T07:51:47;3.43;;;2.20;;
68680;SDS011;55836;49.858;6.756;2022-08-06T07:54:15;6.57;;;2.57;;
68680;SDS011;55836;49.858;6.756;2022-08-06T07:56:43;3.93;;;2.17;;
68680;SDS011;55836;49.858;6.756;2022-08-06T07:59:09;6.77;;;2.80;;
68680;SDS011;55836;49.858;6.756;2022-08-06T08:01:36;6.57;;;3.03;;
68680;SDS011;55836;49.858;6.756;2022-08-06T08:04:04;3.60;;;2.40;;
68680;SDS011;55836;49.858;6.756;2022-08-06T08:06:50;2.57;;;2.03;;
68680;SDS011;55836;49.858;6.756;2022-08-06T08:09:17;4.63;;;2.87;;
68680;SDS011;55836;49.858;6.756;2022-08-06T08:11:46;5.07;;;2.37;;
68680;SDS011;55836;49.858;6.756;2022-08-06T08:14:13;5.20;;;2.83;;
68680;SDS011;55836;49.858;6.756;2022-08-06T08:16:39;3.97;;;2.70;;
68680;SDS011;55836;49.858;6.756;2022-08-06T08:21:57;3.93;;;2.40;;
68680;SDS011;55836;49.858;6.756;2022-08-06T08:24:24;6.63;;;2.87;;
68680;SDS011;55836;49.858;6.756;2022-08-06T08:26:50;4.60;;;2.30;;
68680;SDS011;55836;49.858;6.756;2022-08-06T08:29:17;3.67;;;2.40;;
68680;SDS011;55836;49.858;6.756;2022-08-06T08:31:43;5.60;;;2.43;;
68680;SDS011;55836;49.858;6.756;2022-08-06T08:34:09;5.93;;;2.53;;
68680;SDS011;55836;49.858;6.756;2022-08-06T08:36:36;9.17;;;3.37;;
68680;SDS011;55836;49.858;6.756;2022-08-06T08:39:02;6.73;;;2.40;;
68680;SDS011;55836;49.858;6.756;2022-08-06T08:41:49;5.07;;;2.37;;
68680;SDS011;55836;49.858;6.756;2022-08-06T08:44:23;5.40;;;2.40;;
68680;SDS011;55836;49.858;6.756;2022-08-06T08:46:50;3.83;;;2.70;;
68680;SDS011;55836;49.858;6.756;2022-08-06T08:49:20;5.27;;;2.57;;
68680;SDS011;55836;49.858;6.756;2022-08-06T08:51:46;4.50;;;2.07;;
68680;SDS011;55836;49.858;6.756;2022-08-06T08:54:16;5.33;;;2.20;;
68680;SDS011;55836;49.858;6.756;2022-08-06T08:56:44;4.23;;;2.50;;
68680;SDS011;55836;49.858;6.756;2022-08-06T08:59:10;2.30;;;2.10;;
68680;SDS011;55836;49.858;6.756;2022-08-06T09:01:37;6.13;;;2.07;;
68680;SDS011;55836;49.858;6.756;2022-08-06T09:04:05;3.13;;;2.10;;
68680;SDS011;55836;49.858;6.756;2022-08-06T09:06:32;4.63;;;2.43;;
68680;SDS011;55836;49.858;6.756;2022-08-06T09:09:01;3.73;;;2.10;;
68680;SDS011;55836;49.858;6.756;2022-08-06T09:11:29;2.53;;;2.10;;
68680;SDS011;55836;49.858;6.756;2022-08-06T09:13:55;5.13;;;2.10;;
68680;SDS011;55836;49.858;6.756;2022-08-06T09:16:21;4.07;;;2.33;;
68680;SDS011;55836;49.858;6.756;2022-08-06T09:18:47;5.30;;;2.50;;
68680;SDS011;55836;49.858;6.756;2022-08-06T09:21:13;3.30;;;2.17;;
68680;SDS011;55836;49.858;6.756;2022-08-06T09:23:39;4.13;;;2.43;;
68680;SDS011;55836;49.858;6.756;2022-08-06T09:26:06;3.63;;;2.23;;
68680;SDS011;55836;49.858;6.756;2022-08-06T09:28:33;2.83;;;2.13;;
68680;SDS011;55836;49.858;6.756;2022-08-06T09:31:04;4.80;;;2.50;;
68680;SDS011;55836;49.858;6.756;2022-08-06T09:33:31;2.43;;;2.10;;
68680;SDS011;55836;49.858;6.756;2022-08-06T09:35:58;3.73;;;2.07;;
68680;SDS011;55836;49.858;6.756;2022-08-06T09:38:24;2.83;;;2.10;;
68680;SDS011;55836;49.858;6.756;2022-08-06T09:41:05;3.30;;;1.83;;
68680;SDS011;55836;49.858;6.756;2022-08-06T09:43:32;2.67;;;1.63;;
68680;SDS011;55836;49.858;6.756;2022-08-06T09:45:58;3.20;;;1.70;;
68680;SDS011;55836;49.858;6.756;2022-08-06T09:48:27;2.17;;;1.60;;
68680;SDS011;55836;49.858;6.756;2022-08-06T09:50:53;2.57;;;1.57;;
68680;SDS011;55836;49.858;6.756;2022-08-06T09:53:19;2.47;;;1.60;;
68680;SDS011;55836;49.858;6.756;2022-08-06T09:55:51;2.00;;;1.20;;
68680;SDS011;55836;49.858;6.756;2022-08-06T09:58:30;2.03;;;1.47;;
68680;SDS011;55836;49.858;6.756;2022-08-06T10:01:20;2.70;;;1.40;;
68680;SDS011;55836;49.858;6.756;2022-08-06T10:03:45;3.30;;;1.50;;
68680;SDS011;55836;49.858;6.756;2022-08-06T10:06:13;3.60;;;1.20;;
68680;SDS011;55836;49.858;6.756;2022-08-06T10:08:39;2.30;;;1.23;;
68680;SDS011;55836;49.858;6.756;2022-08-06T10:11:06;2.27;;;0.90;;
68680;SDS011;55836;49.858;6.756;2022-08-06T10:13:33;3.40;;;1.47;;
68680;SDS011;55836;49.858;6.756;2022-08-06T10:15:59;2.53;;;1.20;;
68680;SDS011;55836;49.858;6.756;2022-08-06T10:18:36;3.10;;;0.80;;
68680;SDS011;55836;49.858;6.756;2022-08-06T10:21:06;2.77;;;1.13;;
68680;SDS011;55836;49.858;6.756;2022-08-06T10:23:33;3.80;;;1.00;;
68680;SDS011;55836;49.858;6.756;2022-08-06T10:26:04;2.60;;;1.00;;
68680;SDS011;55836;49.858;6.756;2022-08-06T10:28:32;6.53;;;1.23;;
68680;SDS011;55836;49.858;6.756;2022-08-06T10:30:58;1.70;;;0.97;;
68680;SDS011;55836;49.858;6.756;2022-08-06T10:33:26;2.43;;;1.00;;
68680;SDS011;55836;49.858;6.756;2022-08-06T10:35:57;2.97;;;0.97;;
68680;SDS011;55836;49.858;6.756;2022-08-06T10:38:25;0.80;;;0.60;;
68680;SDS011;55836;49.858;6.756;2022-08-06T10:40:54;1.63;;;1.00;;
68680;SDS011;55836;49.858;6.756;2022-08-06T10:43:21;1.93;;;0.70;;
68680;SDS011;55836;49.858;6.756;2022-08-06T10:45:47;2.60;;;0.93;;
68680;SDS011;55836;49.858;6.756;2022-08-06T10:48:14;3.17;;;0.83;;
68680;SDS011;55836;49.858;6.756;2022-08-06T10:50:41;3.13;;;1.27;;
68680;SDS011;55836;49.858;6.756;2022-08-06T10:53:07;1.67;;;0.90;;
68680;SDS011;55836;49.858;6.756;2022-08-06T10:55:35;1.27;;;0.93;;
68680;SDS011;55836;49.858;6.756;2022-08-06T10:58:01;2.43;;;0.70;;
68680;SDS011;55836;49.858;6.756;2022-08-06T11:00:28;2.87;;;0.90;;
68680;SDS011;55836;49.858;6.756;2022-08-06T11:03:17;1.90;;;0.80;;
68680;SDS011;55836;49.858;6.756;2022-08-06T11:05:47;2.57;;;0.90;;
68680;SDS011;55836;49.858;6.756;2022-08-06T11:14:05;5.20;;;0.70;;
68680;SDS011;55836;49.858;6.756;2022-08-06T11:16:33;1.57;;;0.63;;
68680;SDS011;55836;49.858;6.756;2022-08-06T11:19:01;3.37;;;0.80;;
68680;SDS011;55836;49.858;6.756;2022-08-06T11:21:35;1.30;;;0.90;;
68680;SDS011;55836;49.858;6.756;2022-08-06T11:24:02;0.87;;;0.73;;
68680;SDS011;55836;49.858;6.756;2022-08-06T11:26:39;1.87;;;0.70;;
68680;SDS011;55836;49.858;6.756;2022-08-06T11:29:13;1.77;;;0.90;;
68680;SDS011;55836;49.858;6.756;2022-08-06T11:31:43;4.07;;;0.97;;
68680;SDS011;55836;49.858;6.756;2022-08-06T11:34:13;1.60;;;0.83;;
68680;SDS011;55836;49.858;6.756;2022-08-06T11:36:43;2.40;;;0.80;;
68680;SDS011;55836;49.858;6.756;2022-08-06T11:39:10;1.90;;;1.00;;
68680;SDS011;55836;49.858;6.756;2022-08-06T11:41:58;1.87;;;0.73;;
68680;SDS011;55836;49.858;6.756;2022-08-06T11:44:23;3.00;;;0.93;;
68680;SDS011;55836;49.858;6.756;2022-08-06T11:47:06;1.03;;;0.70;;
68680;SDS011;55836;49.858;6.756;2022-08-06T11:49:50;2.20;;;0.80;;
68680;SDS011;55836;49.858;6.756;2022-08-06T11:52:50;1.43;;;0.70;;
68680;SDS011;55836;49.858;6.756;2022-08-06T11:55:10;0.83;;;0.53;;
68680;SDS011;55836;49.858;6.756;2022-08-06T11:57:37;2.70;;;0.80;;
68680;SDS011;55836;49.858;6.756;2022-08-06T12:00:05;2.23;;;1.00;;
68680;SDS011;55836;49.858;6.756;2022-08-06T12:05:07;2.47;;;1.10;;
68680;SDS011;55836;49.858;6.756;2022-08-06T12:10:37;2.87;;;0.90;;
68680;SDS011;55836;49.858;6.756;2022-08-06T12:13:05;2.70;;;0.93;;
68680;SDS011;55836;49.858;6.756;2022-08-06T12:15:51;2.00;;;0.97;;
68680;SDS011;55836;49.858;6.756;2022-08-06T12:18:18;2.00;;;0.83;;
68680;SDS011;55836;49.858;6.756;2022-08-06T12:20:44;2.47;;;0.70;;
68680;SDS011;55836;49.858;6.756;2022-08-06T12:23:12;1.40;;;0.83;;
68680;SDS011;55836;49.858;6.756;2022-08-06T12:25:39;2.50;;;0.80;;
68680;SDS011;55836;49.858;6.756;2022-08-06T12:28:05;3.00;;;1.00;;
68680;SDS011;55836;49.858;6.756;2022-08-06T12:33:07;2.50;;;0.90;;
68680;SDS011;55836;49.858;6.756;2022-08-06T12:35:34;1.93;;;0.93;;
68680;SDS011;55836;49.858;6.756;2022-08-06T12:38:00;2.10;;;0.80;;
68680;SDS011;55836;49.858;6.756;2022-08-06T12:40:27;1.37;;;0.80;;
68680;SDS011;55836;49.858;6.756;2022-08-06T12:45:25;1.87;;;1.13;;
68680;SDS011;55836;49.858;6.756;2022-08-06T12:50:24;1.90;;;0.80;;
68680;SDS011;55836;49.858;6.756;2022-08-06T12:55:36;1.47;;;1.00;;
68680;SDS011;55836;49.858;6.756;2022-08-06T12:58:07;1.17;;;0.70;;
68680;SDS011;55836;49.858;6.756;2022-08-06T13:00:34;1.33;;;0.73;;
68680;SDS011;55836;49.858;6.756;2022-08-06T13:03:01;1.70;;;0.70;;
68680;SDS011;55836;49.858;6.756;2022-08-06T13:05:28;1.63;;;0.90;;
68680;SDS011;55836;49.858;6.756;2022-08-06T13:07:55;1.63;;;0.83;;
68680;SDS011;55836;49.858;6.756;2022-08-06T13:10:21;1.50;;;0.90;;
68680;SDS011;55836;49.858;6.756;2022-08-06T13:12:54;1.00;;;0.70;;
68680;SDS011;55836;49.858;6.756;2022-08-06T13:15:20;1.77;;;0.90;;
68680;SDS011;55836;49.858;6.756;2022-08-06T13:17:59;2.07;;;0.80;;
68680;SDS011;55836;49.858;6.756;2022-08-06T13:20:36;1.03;;;0.70;;
68680;SDS011;55836;49.858;6.756;2022-08-06T13:23:03;1.90;;;0.70;;
68680;SDS011;55836;49.858;6.756;2022-08-06T13:25:29;2.97;;;0.90;;
68680;SDS011;55836;49.858;6.756;2022-08-06T13:28:12;3.13;;;1.13;;
68680;SDS011;55836;49.858;6.756;2022-08-06T13:30:39;2.10;;;0.90;;
68680;SDS011;55836;49.858;6.756;2022-08-06T13:33:18;1.97;;;0.90;;
68680;SDS011;55836;49.858;6.756;2022-08-06T13:35:46;1.63;;;1.00;;
68680;SDS011;55836;49.858;6.756;2022-08-06T13:38:25;1.80;;;0.80;;
68680;SDS011;55836;49.858;6.756;2022-08-06T13:40:51;2.40;;;1.00;;
68680;SDS011;55836;49.858;6.756;2022-08-06T13:43:18;1.97;;;0.97;;
68680;SDS011;55836;49.858;6.756;2022-08-06T13:45:45;3.80;;;1.10;;
68680;SDS011;55836;49.858;6.756;2022-08-06T13:48:11;0.60;;;0.60;;
68680;SDS011;55836;49.858;6.756;2022-08-06T13:50:38;2.57;;;0.87;;
68680;SDS011;55836;49.858;6.756;2022-08-06T13:53:06;2.23;;;1.10;;
68680;SDS011;55836;49.858;6.756;2022-08-06T13:55:33;2.00;;;0.70;;
68680;SDS011;55836;49.858;6.756;2022-08-06T13:58:00;1.93;;;0.80;;
68680;SDS011;55836;49.858;6.756;2022-08-06T14:00:26;4.00;;;1.43;;
68680;SDS011;55836;49.858;6.756;2022-08-06T14:02:52;1.50;;;1.07;;
68680;SDS011;55836;49.858;6.756;2022-08-06T14:05:18;4.07;;;1.03;;
68680;SDS011;55836;49.858;6.756;2022-08-06T14:07:44;3.50;;;0.77;;
68680;SDS011;55836;49.858;6.756;2022-08-06T14:10:11;2.57;;;1.50;;
68680;SDS011;55836;49.858;6.756;2022-08-06T14:12:37;2.47;;;1.00;;
68680;SDS011;55836;49.858;6.756;2022-08-06T14:15:03;2.20;;;0.60;;
68680;SDS011;55836;49.858;6.756;2022-08-06T14:17:29;1.70;;;0.90;;
68680;SDS011;55836;49.858;6.756;2022-08-06T14:19:55;4.40;;;0.80;;
68680;SDS011;55836;49.858;6.756;2022-08-06T14:22:21;2.33;;;0.70;;
68680;SDS011;55836;49.858;6.756;2022-08-06T14:24:48;1.20;;;0.73;;
68680;SDS011;55836;49.858;6.756;2022-08-06T14:27:14;1.67;;;0.77;;
68680;SDS011;55836;49.858;6.756;2022-08-06T14:29:40;1.07;;;0.70;;
68680;SDS011;55836;49.858;6.756;2022-08-06T14:32:06;1.83;;;0.80;;
68680;SDS011;55836;49.858;6.756;2022-08-06T14:34:32;1.97;;;0.80;;
68680;SDS011;55836;49.858;6.756;2022-08-06T14:37:00;3.23;;;0.93;;
68680;SDS011;55836;49.858;6.756;2022-08-06T14:39:26;0.93;;;0.70;;
68680;SDS011;55836;49.858;6.756;2022-08-06T14:41:52;1.00;;;0.70;;
68680;SDS011;55836;49.858;6.756;2022-08-06T14:44:37;1.33;;;0.60;;
68680;SDS011;55836;49.858;6.756;2022-08-06T14:47:22;2.73;;;0.80;;
68680;SDS011;55836;49.858;6.756;2022-08-06T14:49:48;2.87;;;0.80;;
68680;SDS011;55836;49.858;6.756;2022-08-06T14:52:15;2.30;;;0.80;;
68680;SDS011;55836;49.858;6.756;2022-08-06T14:54:41;2.50;;;0.80;;
68680;SDS011;55836;49.858;6.756;2022-08-06T14:57:07;1.23;;;0.80;;
68680;SDS011;55836;49.858;6.756;2022-08-06T14:59:34;2.13;;;1.00;;
68680;SDS011;55836;49.858;6.756;2022-08-06T15:02:00;1.70;;;0.70;;
68680;SDS011;55836;49.858;6.756;2022-08-06T15:04:28;0.93;;;0.63;;
68680;SDS011;55836;49.858;6.756;2022-08-06T15:06:54;1.63;;;0.70;;
68680;SDS011;55836;49.858;6.756;2022-08-06T15:09:20;1.30;;;0.90;;
68680;SDS011;55836;49.858;6.756;2022-08-06T15:11:47;1.60;;;0.80;;
68680;SDS011;55836;49.858;6.756;2022-08-06T15:14:14;1.43;;;0.87;;
68680;SDS011;55836;49.858;6.756;2022-08-06T15:16:40;2.00;;;0.70;;
68680;SDS011;55836;49.858;6.756;2022-08-06T15:19:06;1.13;;;0.70;;
68680;SDS011;55836;49.858;6.756;2022-08-06T15:21:32;2.00;;;0.70;;
68680;SDS011;55836;49.858;6.756;2022-08-06T15:23:58;2.10;;;0.87;;
68680;SDS011;55836;49.858;6.756;2022-08-06T15:26:25;0.93;;;0.70;;
68680;SDS011;55836;49.858;6.756;2022-08-06T15:28:52;1.97;;;0.70;;
68680;SDS011;55836;49.858;6.756;2022-08-06T15:31:19;0.77;;;0.70;;
68680;SDS011;55836;49.858;6.756;2022-08-06T15:33:45;1.23;;;0.83;;
68680;SDS011;55836;49.858;6.756;2022-08-06T15:36:11;2.70;;;0.80;;
68680;SDS011;55836;49.858;6.756;2022-08-06T15:38:38;1.17;;;0.90;;
68680;SDS011;55836;49.858;6.756;2022-08-06T15:41:05;4.33;;;0.80;;
68680;SDS011;55836;49.858;6.756;2022-08-06T15:43:31;1.40;;;0.77;;
68680;SDS011;55836;49.858;6.756;2022-08-06T15:45:57;2.73;;;0.80;;
68680;SDS011;55836;49.858;6.756;2022-08-06T15:48:25;1.90;;;0.97;;
68680;SDS011;55836;49.858;6.756;2022-08-06T15:50:52;0.60;;;0.60;;
68680;SDS011;55836;49.858;6.756;2022-08-06T15:53:19;3.50;;;0.93;;
68680;SDS011;55836;49.858;6.756;2022-08-06T15:55:46;3.97;;;1.07;;
68680;SDS011;55836;49.858;6.756;2022-08-06T15:58:12;4.23;;;1.00;;